sensor_id;sensor_type;location;lat;lon;timestamp;temperature;humidity
56729;DHT22;42612;52.232;7.560;2023-03-01T00:00:16;6.30;44.90
56729;DHT22;42612;52.232;7.560;2023-03-01T00:02:42;6.30;44.80
56729;DHT22;42612;52.232;7.560;2023-03-01T00:05:07;6.30;45.00
56729;DHT22;42612;52.232;7.560;2023-03-01T00:07:33;6.30;45.00
56729;DHT22;42612;52.232;7.560;2023-03-01T00:09:59;6.20;45.00
56729;DHT22;42612;52.232;7.560;2023-03-01T00:12:24;6.20;45.10
56729;DHT22;42612;52.232;7.560;2023-03-01T00:14:50;6.20;45.10
56729;DHT22;42612;52.232;7.560;2023-03-01T00:17:16;6.20;45.10
56729;DHT22;42612;52.232;7.560;2023-03-01T00:19:42;6.20;45.20
56729;DHT22;42612;52.232;7.560;2023-03-01T00:22:08;6.20;45.50
56729;DHT22;42612;52.232;7.560;2023-03-01T00:24:33;6.20;45.50
56729;DHT22;42612;52.232;7.560;2023-03-01T00:26:59;6.10;45.60
56729;DHT22;42612;52.232;7.560;2023-03-01T00:29:25;6.10;45.50
56729;DHT22;42612;52.232;7.560;2023-03-01T00:31:51;6.20;45.70
56729;DHT22;42612;52.232;7.560;2023-03-01T00:34:16;6.20;45.80
56729;DHT22;42612;52.232;7.560;2023-03-01T00:36:42;6.20;45.70
56729;DHT22;42612;52.232;7.560;2023-03-01T00:39:12;6.20;45.80
56729;DHT22;42612;52.232;7.560;2023-03-01T00:41:38;6.10;45.80
56729;DHT22;42612;52.232;7.560;2023-03-01T00:44:05;6.10;45.80
56729;DHT22;42612;52.232;7.560;2023-03-01T00:46:31;6.10;45.90
56729;DHT22;42612;52.232;7.560;2023-03-01T00:48:56;6.10;46.20
56729;DHT22;42612;52.232;7.560;2023-03-01T00:51:25;6.10;46.30
56729;DHT22;42612;52.232;7.560;2023-03-01T00:53:54;6.10;46.30
56729;DHT22;42612;52.232;7.560;2023-03-01T00:56:20;6.10;46.00
56729;DHT22;42612;52.232;7.560;2023-03-01T00:58:46;6.00;46.10
56729;DHT22;42612;52.232;7.560;2023-03-01T01:01:18;6.00;46.30
56729;DHT22;42612;52.232;7.560;2023-03-01T01:03:54;6.00;46.50
56729;DHT22;42612;52.232;7.560;2023-03-01T01:06:25;6.00;47.80
56729;DHT22;42612;52.232;7.560;2023-03-01T01:08:58;5.90;47.50
56729;DHT22;42612;52.232;7.560;2023-03-01T01:11:27;5.90;47.00
56729;DHT22;42612;52.232;7.560;2023-03-01T01:13:55;5.90;46.80
56729;DHT22;42612;52.232;7.560;2023-03-01T01:16:23;5.90;46.50
56729;DHT22;42612;52.232;7.560;2023-03-01T01:18:50;5.90;46.30
56729;DHT22;42612;52.232;7.560;2023-03-01T01:21:18;5.90;46.30
56729;DHT22;42612;52.232;7.560;2023-03-01T01:23:45;5.90;46.30
56729;DHT22;42612;52.232;7.560;2023-03-01T01:26:18;5.90;46.20
56729;DHT22;42612;52.232;7.560;2023-03-01T01:28:46;5.90;46.60
56729;DHT22;42612;52.232;7.560;2023-03-01T01:31:12;5.80;46.30
56729;DHT22;42612;52.232;7.560;2023-03-01T01:33:38;5.80;46.20
56729;DHT22;42612;52.232;7.560;2023-03-01T01:36:05;5.80;46.50
56729;DHT22;42612;52.232;7.560;2023-03-01T01:38:32;5.80;46.50
56729;DHT22;42612;52.232;7.560;2023-03-01T01:40:58;5.80;46.30
56729;DHT22;42612;52.232;7.560;2023-03-01T01:43:28;5.70;46.30
56729;DHT22;42612;52.232;7.560;2023-03-01T01:46:31;5.70;46.40
56729;DHT22;42612;52.232;7.560;2023-03-01T01:49:02;5.70;47.10
56729;DHT22;42612;52.232;7.560;2023-03-01T01:51:39;5.70;46.70
56729;DHT22;42612;52.232;7.560;2023-03-01T01:54:10;5.70;47.20
56729;DHT22;42612;52.232;7.560;2023-03-01T01:56:39;5.70;47.40
56729;DHT22;42612;52.232;7.560;2023-03-01T01:59:06;5.70;47.30
56729;DHT22;42612;52.232;7.560;2023-03-01T02:01:32;5.60;47.10
56729;DHT22;42612;52.232;7.560;2023-03-01T02:03:58;5.60;47.00
56729;DHT22;42612;52.232;7.560;2023-03-01T02:06:31;5.60;47.10
56729;DHT22;42612;52.232;7.560;2023-03-01T02:09:03;5.60;47.40
56729;DHT22;42612;52.232;7.560;2023-03-01T02:11:32;5.60;47.60
56729;DHT22;42612;52.232;7.560;2023-03-01T02:13:59;5.60;47.50
56729;DHT22;42612;52.232;7.560;2023-03-01T02:16:26;5.50;47.50
56729;DHT22;42612;52.232;7.560;2023-03-01T02:18:52;5.50;47.40
56729;DHT22;42612;52.232;7.560;2023-03-01T02:21:37;5.50;47.20
56729;DHT22;42612;52.232;7.560;2023-03-01T02:26:48;5.50;47.90
56729;DHT22;42612;52.232;7.560;2023-03-01T02:29:15;5.50;47.60
56729;DHT22;42612;52.232;7.560;2023-03-01T02:31:41;5.40;47.50
56729;DHT22;42612;52.232;7.560;2023-03-01T02:34:10;5.40;47.70
56729;DHT22;42612;52.232;7.560;2023-03-01T02:36:42;5.40;47.70
56729;DHT22;42612;52.232;7.560;2023-03-01T02:39:15;5.40;47.70
56729;DHT22;42612;52.232;7.560;2023-03-01T02:41:47;5.40;47.60
56729;DHT22;42612;52.232;7.560;2023-03-01T02:44:15;5.40;47.40
56729;DHT22;42612;52.232;7.560;2023-03-01T02:46:47;5.40;47.20
56729;DHT22;42612;52.232;7.560;2023-03-01T02:49:26;5.40;47.20
56729;DHT22;42612;52.232;7.560;2023-03-01T02:55:09;5.30;48.10
56729;DHT22;42612;52.232;7.560;2023-03-01T02:57:39;5.30;48.00
56729;DHT22;42612;52.232;7.560;2023-03-01T03:00:13;5.30;47.70
56729;DHT22;42612;52.232;7.560;2023-03-01T03:02:49;5.30;47.50
56729;DHT22;42612;52.232;7.560;2023-03-01T03:05:19;5.30;47.40
56729;DHT22;42612;52.232;7.560;2023-03-01T03:07:47;5.30;47.40
56729;DHT22;42612;52.232;7.560;2023-03-01T03:10:23;5.30;47.50
56729;DHT22;42612;52.232;7.560;2023-03-01T03:12:59;5.30;47.40
56729;DHT22;42612;52.232;7.560;2023-03-01T03:15:27;5.30;47.40
56729;DHT22;42612;52.232;7.560;2023-03-01T03:17:55;5.30;47.30
56729;DHT22;42612;52.232;7.560;2023-03-01T03:20:25;5.20;47.30
56729;DHT22;42612;52.232;7.560;2023-03-01T03:22:54;5.20;47.20
56729;DHT22;42612;52.232;7.560;2023-03-01T03:25:21;5.20;47.10
56729;DHT22;42612;52.232;7.560;2023-03-01T03:27:49;5.20;47.40
56729;DHT22;42612;52.232;7.560;2023-03-01T03:30:22;5.20;47.20
56729;DHT22;42612;52.232;7.560;2023-03-01T03:32:56;5.20;47.20
56729;DHT22;42612;52.232;7.560;2023-03-01T03:35:31;5.20;47.20
56729;DHT22;42612;52.232;7.560;2023-03-01T03:38:00;5.10;47.30
56729;DHT22;42612;52.232;7.560;2023-03-01T03:40:29;5.10;47.30
56729;DHT22;42612;52.232;7.560;2023-03-01T03:42:55;5.10;47.30
56729;DHT22;42612;52.232;7.560;2023-03-01T03:45:21;5.10;47.30
56729;DHT22;42612;52.232;7.560;2023-03-01T03:47:47;5.10;47.30
56729;DHT22;42612;52.232;7.560;2023-03-01T03:50:15;5.10;47.60
56729;DHT22;42612;52.232;7.560;2023-03-01T03:52:41;5.10;47.50
56729;DHT22;42612;52.232;7.560;2023-03-01T03:55:10;5.10;47.50
56729;DHT22;42612;52.232;7.560;2023-03-01T03:57:40;5.10;47.50
56729;DHT22;42612;52.232;7.560;2023-03-01T04:00:11;5.10;47.50
56729;DHT22;42612;52.232;7.560;2023-03-01T04:02:42;5.10;47.70
56729;DHT22;42612;52.232;7.560;2023-03-01T04:05:10;5.00;47.80
56729;DHT22;42612;52.232;7.560;2023-03-01T04:07:38;5.00;48.00
56729;DHT22;42612;52.232;7.560;2023-03-01T04:10:05;5.00;48.00
56729;DHT22;42612;52.232;7.560;2023-03-01T04:12:34;5.00;47.80
56729;DHT22;42612;52.232;7.560;2023-03-01T04:15:00;5.00;47.70
56729;DHT22;42612;52.232;7.560;2023-03-01T04:17:27;5.00;47.90
56729;DHT22;42612;52.232;7.560;2023-03-01T04:19:52;5.00;47.80
56729;DHT22;42612;52.232;7.560;2023-03-01T04:22:18;5.00;47.70
56729;DHT22;42612;52.232;7.560;2023-03-01T04:24:45;5.00;47.70
56729;DHT22;42612;52.232;7.560;2023-03-01T04:27:11;4.90;47.60
56729;DHT22;42612;52.232;7.560;2023-03-01T04:29:37;4.90;47.50
56729;DHT22;42612;52.232;7.560;2023-03-01T04:32:03;4.90;47.50
56729;DHT22;42612;52.232;7.560;2023-03-01T04:34:29;4.90;47.70
56729;DHT22;42612;52.232;7.560;2023-03-01T04:36:55;4.90;47.60
56729;DHT22;42612;52.232;7.560;2023-03-01T04:39:21;4.90;47.70
56729;DHT22;42612;52.232;7.560;2023-03-01T04:41:47;4.90;47.80
56729;DHT22;42612;52.232;7.560;2023-03-01T04:44:13;4.80;47.80
56729;DHT22;42612;52.232;7.560;2023-03-01T04:46:38;4.80;47.70
56729;DHT22;42612;52.232;7.560;2023-03-01T04:49:04;4.80;47.60
56729;DHT22;42612;52.232;7.560;2023-03-01T04:51:30;4.80;47.60
56729;DHT22;42612;52.232;7.560;2023-03-01T04:53:58;4.80;47.60
56729;DHT22;42612;52.232;7.560;2023-03-01T04:56:23;4.80;47.60
56729;DHT22;42612;52.232;7.560;2023-03-01T04:58:49;4.70;47.50
56729;DHT22;42612;52.232;7.560;2023-03-01T05:01:20;4.70;47.50
56729;DHT22;42612;52.232;7.560;2023-03-01T05:03:51;4.70;47.50
56729;DHT22;42612;52.232;7.560;2023-03-01T05:06:18;4.70;47.80
56729;DHT22;42612;52.232;7.560;2023-03-01T05:08:44;4.70;47.80
56729;DHT22;42612;52.232;7.560;2023-03-01T05:11:11;4.70;48.00
56729;DHT22;42612;52.232;7.560;2023-03-01T05:13:38;4.70;47.60
56729;DHT22;42612;52.232;7.560;2023-03-01T05:16:05;4.70;47.80
56729;DHT22;42612;52.232;7.560;2023-03-01T05:18:36;4.60;47.90
56729;DHT22;42612;52.232;7.560;2023-03-01T05:21:07;4.60;47.80
56729;DHT22;42612;52.232;7.560;2023-03-01T05:23:38;4.60;47.80
56729;DHT22;42612;52.232;7.560;2023-03-01T05:26:05;4.60;47.70
56729;DHT22;42612;52.232;7.560;2023-03-01T05:28:32;4.60;47.70
56729;DHT22;42612;52.232;7.560;2023-03-01T05:30:58;4.60;48.10
56729;DHT22;42612;52.232;7.560;2023-03-01T05:33:24;4.60;47.70
56729;DHT22;42612;52.232;7.560;2023-03-01T05:35:51;4.60;47.80
56729;DHT22;42612;52.232;7.560;2023-03-01T05:38:18;4.60;47.80
56729;DHT22;42612;52.232;7.560;2023-03-01T05:40:47;4.50;47.80
56729;DHT22;42612;52.232;7.560;2023-03-01T05:43:15;4.50;47.90
56729;DHT22;42612;52.232;7.560;2023-03-01T05:45:42;4.50;48.10
56729;DHT22;42612;52.232;7.560;2023-03-01T05:48:09;4.50;48.40
56729;DHT22;42612;52.232;7.560;2023-03-01T05:50:37;4.50;48.40
56729;DHT22;42612;52.232;7.560;2023-03-01T05:53:07;4.50;48.60
56729;DHT22;42612;52.232;7.560;2023-03-01T05:55:43;4.50;48.00
56729;DHT22;42612;52.232;7.560;2023-03-01T05:58:14;4.50;48.00
56729;DHT22;42612;52.232;7.560;2023-03-01T06:00:43;4.50;47.90
56729;DHT22;42612;52.232;7.560;2023-03-01T06:03:11;4.40;48.10
56729;DHT22;42612;52.232;7.560;2023-03-01T06:05:39;4.40;48.00
56729;DHT22;42612;52.232;7.560;2023-03-01T06:08:05;4.40;48.00
56729;DHT22;42612;52.232;7.560;2023-03-01T06:10:31;4.40;48.70
56729;DHT22;42612;52.232;7.560;2023-03-01T06:12:57;4.40;47.90
56729;DHT22;42612;52.232;7.560;2023-03-01T06:15:23;4.40;47.90
56729;DHT22;42612;52.232;7.560;2023-03-01T06:17:49;4.40;48.00
56729;DHT22;42612;52.232;7.560;2023-03-01T06:20:17;4.40;48.00
56729;DHT22;42612;52.232;7.560;2023-03-01T06:22:45;4.40;48.10
56729;DHT22;42612;52.232;7.560;2023-03-01T06:25:14;4.40;48.00
56729;DHT22;42612;52.232;7.560;2023-03-01T06:27:41;4.40;48.20
56729;DHT22;42612;52.232;7.560;2023-03-01T06:30:09;4.40;48.30
56729;DHT22;42612;52.232;7.560;2023-03-01T06:32:36;4.40;48.20
56729;DHT22;42612;52.232;7.560;2023-03-01T06:35:03;4.40;48.10
56729;DHT22;42612;52.232;7.560;2023-03-01T06:37:29;4.40;48.10
56729;DHT22;42612;52.232;7.560;2023-03-01T06:39:55;4.40;48.00
56729;DHT22;42612;52.232;7.560;2023-03-01T06:42:21;4.40;48.00
56729;DHT22;42612;52.232;7.560;2023-03-01T06:44:46;4.40;48.00
56729;DHT22;42612;52.232;7.560;2023-03-01T06:47:12;4.40;48.10
56729;DHT22;42612;52.232;7.560;2023-03-01T06:49:38;4.30;48.10
56729;DHT22;42612;52.232;7.560;2023-03-01T06:52:04;4.30;48.20
56729;DHT22;42612;52.232;7.560;2023-03-01T06:54:31;4.40;48.30
56729;DHT22;42612;52.232;7.560;2023-03-01T06:56:57;4.40;48.30
56729;DHT22;42612;52.232;7.560;2023-03-01T06:59:23;4.40;48.50
56729;DHT22;42612;52.232;7.560;2023-03-01T07:01:48;4.40;48.10
56729;DHT22;42612;52.232;7.560;2023-03-01T07:04:14;4.40;48.10
56729;DHT22;42612;52.232;7.560;2023-03-01T07:06:40;4.40;48.10
56729;DHT22;42612;52.232;7.560;2023-03-01T07:09:05;4.40;48.50
56729;DHT22;42612;52.232;7.560;2023-03-01T07:11:32;4.30;48.20
56729;DHT22;42612;52.232;7.560;2023-03-01T07:13:58;4.30;48.40
56729;DHT22;42612;52.232;7.560;2023-03-01T07:16:25;4.40;48.60
56729;DHT22;42612;52.232;7.560;2023-03-01T07:18:51;4.40;48.60
56729;DHT22;42612;52.232;7.560;2023-03-01T07:21:16;4.40;48.70
56729;DHT22;42612;52.232;7.560;2023-03-01T07:23:42;4.40;48.70
56729;DHT22;42612;52.232;7.560;2023-03-01T07:26:08;4.40;48.90
56729;DHT22;42612;52.232;7.560;2023-03-01T07:28:34;4.50;48.90
56729;DHT22;42612;52.232;7.560;2023-03-01T07:31:02;4.50;48.80
56729;DHT22;42612;52.232;7.560;2023-03-01T07:33:28;4.60;49.00
56729;DHT22;42612;52.232;7.560;2023-03-01T07:35:58;4.60;49.00
56729;DHT22;42612;52.232;7.560;2023-03-01T07:38:25;4.60;49.30
56729;DHT22;42612;52.232;7.560;2023-03-01T07:40:52;4.60;49.20
56729;DHT22;42612;52.232;7.560;2023-03-01T07:43:18;4.70;49.40
56729;DHT22;42612;52.232;7.560;2023-03-01T07:45:43;4.70;49.60
56729;DHT22;42612;52.232;7.560;2023-03-01T07:48:09;4.80;50.10
56729;DHT22;42612;52.232;7.560;2023-03-01T07:50:35;4.80;50.30
56729;DHT22;42612;52.232;7.560;2023-03-01T07:53:01;4.90;50.30
56729;DHT22;42612;52.232;7.560;2023-03-01T07:55:27;5.00;50.60
56729;DHT22;42612;52.232;7.560;2023-03-01T07:57:53;5.10;50.50
56729;DHT22;42612;52.232;7.560;2023-03-01T08:00:19;5.10;50.50
56729;DHT22;42612;52.232;7.560;2023-03-01T08:02:45;5.20;50.50
56729;DHT22;42612;52.232;7.560;2023-03-01T08:05:11;5.30;50.70
56729;DHT22;42612;52.232;7.560;2023-03-01T08:07:37;5.40;50.80
56729;DHT22;42612;52.232;7.560;2023-03-01T08:10:03;5.50;50.80
56729;DHT22;42612;52.232;7.560;2023-03-01T08:12:29;5.50;51.00
56729;DHT22;42612;52.232;7.560;2023-03-01T08:14:54;5.60;50.80
56729;DHT22;42612;52.232;7.560;2023-03-01T08:17:21;5.70;50.70
56729;DHT22;42612;52.232;7.560;2023-03-01T08:19:46;5.80;50.40
56729;DHT22;42612;52.232;7.560;2023-03-01T08:22:12;5.90;50.30
56729;DHT22;42612;52.232;7.560;2023-03-01T08:24:38;6.00;50.40
56729;DHT22;42612;52.232;7.560;2023-03-01T08:27:03;6.10;50.50
56729;DHT22;42612;52.232;7.560;2023-03-01T08:29:33;6.20;50.40
56729;DHT22;42612;52.232;7.560;2023-03-01T08:31:59;6.20;50.60
56729;DHT22;42612;52.232;7.560;2023-03-01T08:34:25;6.30;50.40
56729;DHT22;42612;52.232;7.560;2023-03-01T08:36:51;6.40;50.30
56729;DHT22;42612;52.232;7.560;2023-03-01T08:39:19;6.50;50.30
56729;DHT22;42612;52.232;7.560;2023-03-01T08:41:45;6.60;50.10
56729;DHT22;42612;52.232;7.560;2023-03-01T08:44:13;6.60;50.20
56729;DHT22;42612;52.232;7.560;2023-03-01T08:46:40;6.70;50.00
56729;DHT22;42612;52.232;7.560;2023-03-01T08:49:08;6.80;50.30
56729;DHT22;42612;52.232;7.560;2023-03-01T08:51:39;6.80;49.60
56729;DHT22;42612;52.232;7.560;2023-03-01T08:54:07;6.90;49.70
56729;DHT22;42612;52.232;7.560;2023-03-01T08:56:36;7.00;49.70
56729;DHT22;42612;52.232;7.560;2023-03-01T08:59:02;7.00;49.30
56729;DHT22;42612;52.232;7.560;2023-03-01T09:01:28;7.10;49.10
56729;DHT22;42612;52.232;7.560;2023-03-01T09:03:53;7.20;49.20
56729;DHT22;42612;52.232;7.560;2023-03-01T09:06:19;7.20;49.40
56729;DHT22;42612;52.232;7.560;2023-03-01T09:08:47;7.30;49.30
56729;DHT22;42612;52.232;7.560;2023-03-01T09:11:16;7.40;49.20
56729;DHT22;42612;52.232;7.560;2023-03-01T09:13:44;7.40;49.00
56729;DHT22;42612;52.232;7.560;2023-03-01T09:16:12;7.50;49.50
56729;DHT22;42612;52.232;7.560;2023-03-01T09:18:39;7.50;49.80
56729;DHT22;42612;52.232;7.560;2023-03-01T09:21:08;7.60;49.40
56729;DHT22;42612;52.232;7.560;2023-03-01T09:23:40;7.70;49.40
56729;DHT22;42612;52.232;7.560;2023-03-01T09:26:11;7.70;49.30
56729;DHT22;42612;52.232;7.560;2023-03-01T09:28:39;7.80;48.80
56729;DHT22;42612;52.232;7.560;2023-03-01T09:31:06;7.90;48.90
56729;DHT22;42612;52.232;7.560;2023-03-01T09:33:33;8.00;49.10
56729;DHT22;42612;52.232;7.560;2023-03-01T09:36:00;8.00;48.70
56729;DHT22;42612;52.232;7.560;2023-03-01T09:38:27;8.10;48.30
56729;DHT22;42612;52.232;7.560;2023-03-01T09:40:53;8.10;48.30
56729;DHT22;42612;52.232;7.560;2023-03-01T09:46:10;8.30;49.10
56729;DHT22;42612;52.232;7.560;2023-03-01T09:48:44;8.30;48.30
56729;DHT22;42612;52.232;7.560;2023-03-01T09:51:35;8.40;48.70
56729;DHT22;42612;52.232;7.560;2023-03-01T09:54:05;8.50;48.30
56729;DHT22;42612;52.232;7.560;2023-03-01T09:56:36;8.50;48.00
56729;DHT22;42612;52.232;7.560;2023-03-01T09:59:19;8.60;48.30
56729;DHT22;42612;52.232;7.560;2023-03-01T10:05:10;8.70;47.40
56729;DHT22;42612;52.232;7.560;2023-03-01T10:10:52;8.90;47.50
56729;DHT22;42612;52.232;7.560;2023-03-01T10:17:02;9.00;46.30
56729;DHT22;42612;52.232;7.560;2023-03-01T10:19:36;9.10;46.40
56729;DHT22;42612;52.232;7.560;2023-03-01T10:22:26;9.10;46.70
56729;DHT22;42612;52.232;7.560;2023-03-01T10:24:56;9.20;47.10
56729;DHT22;42612;52.232;7.560;2023-03-01T10:27:24;9.30;46.90
56729;DHT22;42612;52.232;7.560;2023-03-01T10:32:19;9.40;46.20
56729;DHT22;42612;52.232;7.560;2023-03-01T10:34:47;9.50;46.10
56729;DHT22;42612;52.232;7.560;2023-03-01T10:37:18;9.50;45.40
56729;DHT22;42612;52.232;7.560;2023-03-01T10:40:07;9.60;46.00
56729;DHT22;42612;52.232;7.560;2023-03-01T10:42:46;9.70;44.70
56729;DHT22;42612;52.232;7.560;2023-03-01T10:48:24;9.80;44.60
56729;DHT22;42612;52.232;7.560;2023-03-01T10:58:39;10.10;45.20
56729;DHT22;42612;52.232;7.560;2023-03-01T11:06:36;10.30;44.90
56729;DHT22;42612;52.232;7.560;2023-03-01T11:09:15;10.40;45.30
56729;DHT22;42612;52.232;7.560;2023-03-01T11:11:44;10.50;44.60
56729;DHT22;42612;52.232;7.560;2023-03-01T11:14:15;10.50;45.20
56729;DHT22;42612;52.232;7.560;2023-03-01T11:16:45;10.60;44.70
56729;DHT22;42612;52.232;7.560;2023-03-01T11:24:14;10.90;44.90
56729;DHT22;42612;52.232;7.560;2023-03-01T11:26:45;11.00;44.70
56729;DHT22;42612;52.232;7.560;2023-03-01T11:29:22;11.10;44.30
56729;DHT22;42612;52.232;7.560;2023-03-01T11:31:56;11.10;42.90
56729;DHT22;42612;52.232;7.560;2023-03-01T11:37:21;11.30;41.90
56729;DHT22;42612;52.232;7.560;2023-03-01T11:39:58;11.40;42.40
56729;DHT22;42612;52.232;7.560;2023-03-01T11:43:02;11.50;43.70
56729;DHT22;42612;52.232;7.560;2023-03-01T11:54:46;11.70;41.90
56729;DHT22;42612;52.232;7.560;2023-03-01T12:03:07;12.00;43.40
56729;DHT22;42612;52.232;7.560;2023-03-01T12:09:01;12.20;42.30
56729;DHT22;42612;52.232;7.560;2023-03-01T12:20:30;12.40;41.90
56729;DHT22;42612;52.232;7.560;2023-03-01T12:32:21;12.70;41.10
56729;DHT22;42612;52.232;7.560;2023-03-01T12:35:23;12.80;40.10
56729;DHT22;42612;52.232;7.560;2023-03-01T12:40:41;13.00;40.30
56729;DHT22;42612;52.232;7.560;2023-03-01T12:46:10;13.10;40.10
56729;DHT22;42612;52.232;7.560;2023-03-01T12:51:45;13.30;40.90
56729;DHT22;42612;52.232;7.560;2023-03-01T12:54:26;13.30;40.80
56729;DHT22;42612;52.232;7.560;2023-03-01T12:56:54;13.40;40.90
56729;DHT22;42612;52.232;7.560;2023-03-01T12:59:51;13.50;40.60
56729;DHT22;42612;52.232;7.560;2023-03-01T13:02:52;13.50;38.70
56729;DHT22;42612;52.232;7.560;2023-03-01T13:08:27;13.80;38.70
56729;DHT22;42612;52.232;7.560;2023-03-01T13:11:03;13.80;39.50
56729;DHT22;42612;52.232;7.560;2023-03-01T13:13:30;13.90;39.60
56729;DHT22;42612;52.232;7.560;2023-03-01T13:15:57;13.90;39.60
56729;DHT22;42612;52.232;7.560;2023-03-01T13:20:52;14.10;39.90
56729;DHT22;42612;52.232;7.560;2023-03-01T13:26:07;14.20;39.10
56729;DHT22;42612;52.232;7.560;2023-03-01T13:28:38;14.30;37.50
56729;DHT22;42612;52.232;7.560;2023-03-01T13:33:58;14.40;38.50
56729;DHT22;42612;52.232;7.560;2023-03-01T13:41:55;14.50;38.80
56729;DHT22;42612;52.232;7.560;2023-03-01T13:44:32;14.60;39.00
56729;DHT22;42612;52.232;7.560;2023-03-01T13:49:57;14.70;38.60
56729;DHT22;42612;52.232;7.560;2023-03-01T13:52:55;14.70;39.20
56729;DHT22;42612;52.232;7.560;2023-03-01T13:55:37;14.80;39.20
56729;DHT22;42612;52.232;7.560;2023-03-01T13:58:46;14.80;39.10
56729;DHT22;42612;52.232;7.560;2023-03-01T14:01:22;14.80;38.60
56729;DHT22;42612;52.232;7.560;2023-03-01T14:03:53;14.80;38.70
56729;DHT22;42612;52.232;7.560;2023-03-01T14:06:25;14.90;39.00
56729;DHT22;42612;52.232;7.560;2023-03-01T14:09:26;15.00;39.20
56729;DHT22;42612;52.232;7.560;2023-03-01T14:12:08;15.00;38.10
56729;DHT22;42612;52.232;7.560;2023-03-01T14:15:06;15.10;38.80
56729;DHT22;42612;52.232;7.560;2023-03-01T14:20:45;15.20;38.40
56729;DHT22;42612;52.232;7.560;2023-03-01T14:23:19;15.20;38.90
56729;DHT22;42612;52.232;7.560;2023-03-01T14:25:51;15.30;38.40
56729;DHT22;42612;52.232;7.560;2023-03-01T14:30:52;15.40;38.50
56729;DHT22;42612;52.232;7.560;2023-03-01T14:33:32;15.40;38.30
56729;DHT22;42612;52.232;7.560;2023-03-01T14:36:12;15.40;38.10
56729;DHT22;42612;52.232;7.560;2023-03-01T14:38:46;15.30;37.30
56729;DHT22;42612;52.232;7.560;2023-03-01T14:41:20;15.30;37.60
56729;DHT22;42612;52.232;7.560;2023-03-01T14:46:24;15.30;37.80
56729;DHT22;42612;52.232;7.560;2023-03-01T14:48:55;15.30;37.00
56729;DHT22;42612;52.232;7.560;2023-03-01T14:51:30;15.30;37.90
56729;DHT22;42612;52.232;7.560;2023-03-01T14:54:01;15.40;38.40
56729;DHT22;42612;52.232;7.560;2023-03-01T14:56:27;15.40;38.40
56729;DHT22;42612;52.232;7.560;2023-03-01T14:58:53;15.40;38.20
56729;DHT22;42612;52.232;7.560;2023-03-01T15:01:23;15.40;37.60
56729;DHT22;42612;52.232;7.560;2023-03-01T15:03:50;15.40;37.50
56729;DHT22;42612;52.232;7.560;2023-03-01T15:06:19;15.40;37.70
56729;DHT22;42612;52.232;7.560;2023-03-01T15:08:48;15.50;37.60
56729;DHT22;42612;52.232;7.560;2023-03-01T15:11:29;15.40;37.60
56729;DHT22;42612;52.232;7.560;2023-03-01T15:13:56;15.50;37.50
56729;DHT22;42612;52.232;7.560;2023-03-01T15:16:26;15.50;37.60
56729;DHT22;42612;52.232;7.560;2023-03-01T15:19:05;15.50;37.40
56729;DHT22;42612;52.232;7.560;2023-03-01T15:21:32;15.60;37.10
56729;DHT22;42612;52.232;7.560;2023-03-01T15:26:46;15.60;36.20
56729;DHT22;42612;52.232;7.560;2023-03-01T15:29:26;15.60;37.70
56729;DHT22;42612;52.232;7.560;2023-03-01T15:31:59;15.60;37.50
56729;DHT22;42612;52.232;7.560;2023-03-01T15:34:38;15.60;38.10
56729;DHT22;42612;52.232;7.560;2023-03-01T15:37:40;15.60;36.90
56729;DHT22;42612;52.232;7.560;2023-03-01T15:42:50;15.60;36.90
56729;DHT22;42612;52.232;7.560;2023-03-01T15:47:56;15.60;37.40
56729;DHT22;42612;52.232;7.560;2023-03-01T15:50:41;15.70;36.60
56729;DHT22;42612;52.232;7.560;2023-03-01T15:53:13;15.70;37.30
56729;DHT22;42612;52.232;7.560;2023-03-01T15:55:42;15.70;36.50
56729;DHT22;42612;52.232;7.560;2023-03-01T15:58:22;15.70;37.00
56729;DHT22;42612;52.232;7.560;2023-03-01T16:00:49;15.70;36.50
56729;DHT22;42612;52.232;7.560;2023-03-01T16:03:21;15.70;37.10
56729;DHT22;42612;52.232;7.560;2023-03-01T16:05:51;15.60;37.00
56729;DHT22;42612;52.232;7.560;2023-03-01T16:08:17;15.60;37.00
56729;DHT22;42612;52.232;7.560;2023-03-01T16:10:44;15.50;37.50
56729;DHT22;42612;52.232;7.560;2023-03-01T16:13:11;15.60;37.10
56729;DHT22;42612;52.232;7.560;2023-03-01T16:15:37;15.60;37.30
56729;DHT22;42612;52.232;7.560;2023-03-01T16:18:04;15.50;37.40
56729;DHT22;42612;52.232;7.560;2023-03-01T16:20:31;15.40;37.60
56729;DHT22;42612;52.232;7.560;2023-03-01T16:22:59;15.40;37.80
56729;DHT22;42612;52.232;7.560;2023-03-01T16:25:26;15.40;37.30
56729;DHT22;42612;52.232;7.560;2023-03-01T16:27:52;15.40;37.60
56729;DHT22;42612;52.232;7.560;2023-03-01T16:30:20;15.40;37.50
56729;DHT22;42612;52.232;7.560;2023-03-01T16:32:48;15.40;37.40
56729;DHT22;42612;52.232;7.560;2023-03-01T16:35:16;15.30;37.70
56729;DHT22;42612;52.232;7.560;2023-03-01T16:37:43;15.30;37.30
56729;DHT22;42612;52.232;7.560;2023-03-01T16:40:19;15.20;37.10
56729;DHT22;42612;52.232;7.560;2023-03-01T16:42:51;15.20;37.20
56729;DHT22;42612;52.232;7.560;2023-03-01T16:45:18;15.10;37.80
56729;DHT22;42612;52.232;7.560;2023-03-01T16:47:44;15.00;37.80
56729;DHT22;42612;52.232;7.560;2023-03-01T16:50:11;14.90;38.20
56729;DHT22;42612;52.232;7.560;2023-03-01T16:52:37;14.80;37.80
56729;DHT22;42612;52.232;7.560;2023-03-01T16:55:05;14.80;37.40
56729;DHT22;42612;52.232;7.560;2023-03-01T16:57:34;14.70;37.30
56729;DHT22;42612;52.232;7.560;2023-03-01T17:00:00;14.60;38.20
56729;DHT22;42612;52.232;7.560;2023-03-01T17:02:33;14.50;38.10
56729;DHT22;42612;52.232;7.560;2023-03-01T17:04:59;14.40;38.40
56729;DHT22;42612;52.232;7.560;2023-03-01T17:07:25;14.30;38.00
56729;DHT22;42612;52.232;7.560;2023-03-01T17:09:50;14.20;37.70
56729;DHT22;42612;52.232;7.560;2023-03-01T17:12:16;14.00;37.70
56729;DHT22;42612;52.232;7.560;2023-03-01T17:14:42;14.00;37.60
56729;DHT22;42612;52.232;7.560;2023-03-01T17:17:09;13.80;37.60
56729;DHT22;42612;52.232;7.560;2023-03-01T17:19:35;13.70;37.60
56729;DHT22;42612;52.232;7.560;2023-03-01T17:22:06;13.60;37.80
56729;DHT22;42612;52.232;7.560;2023-03-01T17:24:33;13.50;37.90
56729;DHT22;42612;52.232;7.560;2023-03-01T17:27:00;13.40;38.30
56729;DHT22;42612;52.232;7.560;2023-03-01T17:29:25;13.30;38.10
56729;DHT22;42612;52.232;7.560;2023-03-01T17:31:51;13.10;38.30
56729;DHT22;42612;52.232;7.560;2023-03-01T17:34:19;13.10;39.00
56729;DHT22;42612;52.232;7.560;2023-03-01T17:36:45;13.00;39.50
56729;DHT22;42612;52.232;7.560;2023-03-01T17:39:12;12.90;40.40
56729;DHT22;42612;52.232;7.560;2023-03-01T17:41:38;12.80;39.70
56729;DHT22;42612;52.232;7.560;2023-03-01T17:44:04;12.80;39.80
56729;DHT22;42612;52.232;7.560;2023-03-01T17:46:29;12.70;39.70
56729;DHT22;42612;52.232;7.560;2023-03-01T17:48:55;12.60;39.30
56729;DHT22;42612;52.232;7.560;2023-03-01T17:51:21;12.60;39.30
56729;DHT22;42612;52.232;7.560;2023-03-01T17:53:46;12.50;39.50
56729;DHT22;42612;52.232;7.560;2023-03-01T17:56:12;12.50;39.20
56729;DHT22;42612;52.232;7.560;2023-03-01T17:58:38;12.40;39.50
56729;DHT22;42612;52.232;7.560;2023-03-01T18:01:12;12.30;39.40